Time;durP1;ratioP1;P1;durP2;ratioP2;P2;SDS_P1;SDS_P2;PMS_P1;PMS_P2;Temp;Humidity;BMP_temperature;BMP_pressure;BME280_temperature;BME280_humidity;BME280_pressure;Samples;Min_cycle;Max_cycle;Signal;HPM_P1;HPM_P2
2023/03/24 06:53:02;;;;;;;4.68;1.65;;;;;;;;;;10510424;28;20503;-81
2023/03/24 06:58:03;;;;;;;;;;;;;;;;;;10507346;28;20055;-81
2023/03/24 07:03:04;;;;;;;6.87;2.00;;;;;;;;;;10515392;22;19921;-81
2023/03/24 07:08:06;;;;;;;4.88;1.50;;;;;;;;;;10472636;28;20278;-82
2023/03/24 07:13:08;;;;;;;4.30;1.35;;;;;;;;;;10472761;28;20376;-82
2023/03/24 07:18:10;;;;;;;3.80;1.60;;;;;;;;;;10474356;28;20017;-82
2023/03/24 07:23:11;;;;;;;4.97;1.70;;;;;;;;;;10475029;28;20033;-82
2023/03/24 07:28:12;;;;;;;4.13;1.52;;;;;;;;;;10473754;28;20033;-82
2023/03/24 07:33:13;;;;;;;;;;;;;;;;;;10489259;28;20051;-82
2023/03/24 07:38:15;;;;;;;5.40;1.67;;;;;;;;;;10491014;28;19976;-82
2023/03/24 07:43:16;;;;;;;7.40;1.70;;;;;;;;;;10492252;28;20052;-82
2023/03/24 07:48:18;;;;;;;4.60;1.73;;;;;;;;;;10484818;28;20067;-80
2023/03/24 07:53:23;;;;;;;5.07;1.55;;;;;;;;;;10486025;28;20041;-81
2023/03/24 07:58:24;;;;;;;3.97;1.45;;;;;;;;;;10489378;28;20080;-81
2023/03/24 08:03:27;;;;;;;2.95;1.30;;;;;;;;;;10442978;28;20029;-78
2023/03/24 08:08:28;;;;;;;3.45;1.35;;;;;;;;;;10446065;28;20076;-79
2023/03/24 08:13:28;;;;;;;;;;;;;;;;;;10439382;28;20032;-78
2023/03/24 08:18:33;;;;;;;3.53;1.30;;;;;;;;;;10439249;28;19915;-77
2023/03/24 08:23:35;;;;;;;3.15;1.33;;;;;;;;;;10437034;28;20032;-78
2023/03/24 08:28:37;;;;;;;4.13;1.42;;;;;;;;;;10437498;28;20121;-78
2023/03/24 08:33:38;;;;;;;4.05;1.63;;;;;;;;;;10440102;28;20060;-79
2023/03/24 08:38:39;;;;;;;4.85;1.70;;;;;;;;;;10438134;28;20025;-80
2023/03/24 08:43:40;;;;;;;5.05;1.83;;;;;;;;;;10443632;28;20021;-79
2023/03/24 08:48:42;;;;;;;7.07;2.08;;;;;;;;;;10432886;28;20171;-79
2023/03/24 08:53:43;;;;;;;5.78;1.75;;;;;;;;;;10437741;28;20026;-79
2023/03/24 08:58:47;;;;;;;6.63;2.03;;;;;;;;;;10440281;28;20115;-78
2023/03/24 09:03:48;;;;;;;4.93;1.65;;;;;;;;;;10439044;28;20025;-79
2023/03/24 09:08:50;;;;;;;5.07;1.90;;;;;;;;;;10441345;28;20363;-79
2023/03/24 09:13:51;;;;;;;6.15;1.98;;;;;;;;;;10450450;28;20205;-81
2023/03/24 09:18:53;;;;;;;4.13;1.35;;;;;;;;;;10445392;28;20057;-80
2023/03/24 09:23:54;;;;;;;6.10;2.72;;;;;;;;;;10441622;28;20021;-79
2023/03/24 09:28:55;;;;;;;6.07;2.28;;;;;;;;;;10441553;28;20112;-79
2023/03/24 09:33:56;;;;;;;4.78;2.00;;;;;;;;;;10441986;28;20026;-82
2023/03/24 09:38:58;;;;;;;4.78;2.10;;;;;;;;;;10448359;28;20049;-78
2023/03/24 09:44:14;;;;;;;7.18;2.72;;;;;;;;;;10450629;28;20041;-79
2023/03/24 09:49:19;;;;;;;8.00;2.78;;;;;;;;;;10464825;28;20013;-80
2023/03/24 09:54:26;;;;;;;5.65;2.88;;;;;;;;;;10453958;28;20033;-81
2023/03/24 09:59:38;;;;;;;7.18;2.50;;;;;;;;;;10442915;28;20045;-83
2023/03/24 10:04:39;;;;;;;5.45;2.10;;;;;;;;;;10444593;28;20037;-82
2023/03/24 10:09:40;;;;;;;5.68;2.58;;;;;;;;;;10441510;28;20032;-80
2023/03/24 10:14:55;;;;;;;7.15;2.40;;;;;;;;;;10436529;28;20031;-77
2023/03/24 10:20:15;;;;;;;6.07;2.55;;;;;;;;;;10428564;28;20025;-79
2023/03/24 10:25:38;;;;;;;6.20;2.72;;;;;;;;;;10430292;28;20065;-78
2023/03/24 10:30:41;;;;;;;6.85;2.60;;;;;;;;;;10431980;28;20029;-78
2023/03/24 10:35:46;;;;;;;6.55;2.67;;;;;;;;;;10430615;28;20033;-79
2023/03/24 10:40:47;;;;;;;4.72;2.53;;;;;;;;;;10427098;28;20095;-79
2023/03/24 10:45:50;;;;;;;5.28;2.60;;;;;;;;;;10423013;28;20065;-81
2023/03/24 10:50:52;;;;;;;5.97;2.95;;;;;;;;;;10423329;28;20048;-78
2023/03/24 10:55:53;;;;;;;7.20;2.58;;;;;;;;;;10421417;28;20071;-78
2023/03/24 11:00:55;;;;;;;4.90;2.15;;;;;;;;;;10425026;28;20030;-80
2023/03/24 11:06:00;;;;;;;4.45;2.58;;;;;;;;;;10432858;28;20109;-79
2023/03/24 11:11:12;;;;;;;5.40;2.55;;;;;;;;;;10429737;28;20026;-80
2023/03/24 11:16:14;;;;;;;5.70;1.98;;;;;;;;;;10419811;28;20032;-80
2023/03/24 11:21:16;;;;;;;6.15;2.20;;;;;;;;;;10423123;28;20034;-80
2023/03/24 11:26:22;;;;;;;5.10;2.10;;;;;;;;;;10426584;28;20037;-79
2023/03/24 11:31:30;;;;;;;5.30;1.88;;;;;;;;;;10439460;28;20042;-80
2023/03/24 11:36:38;;;;;;;4.38;1.70;;;;;;;;;;10434648;28;20028;-81
2023/03/24 11:41:49;;;;;;;4.63;1.65;;;;;;;;;;10441481;28;20089;-81
2023/03/24 11:46:50;;;;;;;;;;;;;;;;;;10439397;28;20057;-81
2023/03/24 11:51:54;;;;;;;4.40;1.80;;;;;;;;;;10436901;28;19921;-79
2023/03/24 11:56:57;;;;;;;4.25;1.67;;;;;;;;;;10439386;28;20036;-81
2023/03/24 12:02:09;;;;;;;3.90;1.50;;;;;;;;;;10438423;28;20034;-79
2023/03/24 12:07:29;;;;;;;4.20;1.70;;;;;;;;;;10454277;28;20017;-81
2023/03/24 12:12:51;;;;;;;2.87;1.60;;;;;;;;;;10456932;28;20041;-79
2023/03/24 12:17:55;;;;;;;4.03;1.60;;;;;;;;;;10449759;28;20029;-81
2023/03/24 12:23:00;;;;;;;5.78;2.20;;;;;;;;;;10448316;28;20124;-81
2023/03/24 12:28:09;;;;;;;3.70;1.30;;;;;;;;;;10453845;28;20033;-81
2023/03/24 12:33:25;;;;;;;4.70;1.73;;;;;;;;;;10452412;28;20029;-80
2023/03/24 12:38:49;;;;;;;3.45;1.42;;;;;;;;;;10451220;28;20106;-80
2023/03/24 12:44:08;;;;;;;6.13;1.50;;;;;;;;;;10453976;28;20021;-79
2023/03/24 12:49:16;;;;;;;4.43;1.53;;;;;;;;;;10450618;28;20053;-80
2023/03/24 12:54:21;;;;;;;5.07;1.60;;;;;;;;;;10448738;28;20057;-81
2023/03/24 12:59:32;;;;;;;8.25;2.03;;;;;;;;;;10447005;28;20033;-81
2023/03/24 13:10:19;;;;;;;3.25;1.48;;;;;;;;;;10449462;28;20033;-84
2023/03/24 13:15:22;;;;;;;5.30;2.10;;;;;;;;;;10425383;28;20029;-84
2023/03/24 13:20:33;;;;;;;4.50;1.42;;;;;;;;;;10425025;28;20111;-84
2023/03/24 13:25:55;;;;;;;5.00;1.70;;;;;;;;;;10424909;28;20455;-84
2023/03/24 13:30:57;;;;;;;4.13;1.52;;;;;;;;;;10425815;28;20033;-84
2023/03/24 13:35:58;;;;;;;4.70;2.20;;;;;;;;;;10426878;28;20116;-84
2023/03/24 13:41:02;;;;;;;4.53;2.50;;;;;;;;;;10431480;28;20022;-84
2023/03/24 13:46:12;;;;;;;5.40;1.95;;;;;;;;;;10433271;28;20049;-84
2023/03/24 13:51:16;;;;;;;5.38;1.83;;;;;;;;;;10430716;28;20053;-84
2023/03/24 13:56:35;;;;;;;4.40;2.20;;;;;;;;;;10430178;28;20106;-83
2023/03/24 14:01:38;;;;;;;6.50;1.67;;;;;;;;;;10426958;28;20033;-84
2023/03/24 14:06:58;;;;;;;5.57;1.80;;;;;;;;;;10430376;28;20028;-84
2023/03/24 14:12:02;;;;;;;6.22;1.73;;;;;;;;;;10437343;28;20119;-84
2023/03/24 14:17:03;;;;;;;3.75;1.30;;;;;;;;;;10422394;28;20093;-85
2023/03/24 14:22:15;;;;;;;3.05;1.55;;;;;;;;;;10424677;28;20502;-84
2023/03/24 14:27:35;;;;;;;5.90;1.50;;;;;;;;;;10428215;28;20040;-84
2023/03/24 14:32:59;;;;;;;2.90;1.20;;;;;;;;;;10444779;28;20045;-82
2023/03/24 14:38:21;;;;;;;3.28;1.30;;;;;;;;;;10419494;28;20041;-84
2023/03/24 14:43:45;;;;;;;2.78;1.35;;;;;;;;;;10429254;28;20422;-85
2023/03/24 14:48:56;;;;;;;3.95;1.30;;;;;;;;;;10422880;28;20028;-85
2023/03/24 14:53:57;;;;;;;;;;;;;;;;;;10423430;28;20040;-85
2023/03/24 14:59:00;;;;;;;3.03;1.23;;;;;;;;;;10437960;28;19928;-85
2023/03/24 15:04:04;;;;;;;2.55;1.20;;;;;;;;;;10421362;28;20041;-85
2023/03/24 15:09:09;;;;;;;4.07;1.10;;;;;;;;;;10430487;28;20097;-85
2023/03/24 15:14:18;;;;;;;3.35;1.15;;;;;;;;;;10453086;28;20048;-84
2023/03/24 15:19:24;;;;;;;3.17;1.27;;;;;;;;;;10444019;28;20092;-85
2023/03/24 15:24:27;;;;;;;3.33;1.45;;;;;;;;;;10429925;28;20025;-86
2023/03/24 15:29:28;;;;;;;3.85;2.03;;;;;;;;;;10427021;28;20033;-85
2023/03/24 15:34:29;;;;;;;3.95;1.40;;;;;;;;;;10435239;28;20049;-85
2023/03/24 15:39:35;;;;;;;4.47;1.58;;;;;;;;;;10435927;28;20028;-85
2023/03/24 15:44:37;;;;;;;2.50;1.27;;;;;;;;;;10433912;28;20026;-85
2023/03/24 15:49:45;;;;;;;1.92;0.95;;;;;;;;;;10435943;28;20083;-85
2023/03/24 15:54:46;;;;;;;2.10;1.13;;;;;;;;;;10437804;28;20084;-84
2023/03/24 15:59:49;;;;;;;2.17;1.27;;;;;;;;;;10431800;28;20081;-85
2023/03/24 16:04:50;;;;;;;2.17;1.30;;;;;;;;;;10435620;28;20030;-86
2023/03/24 16:09:57;;;;;;;4.18;1.30;;;;;;;;;;10437604;28;20021;-84
2023/03/24 16:14:58;;;;;;;4.30;1.55;;;;;;;;;;10434192;28;20072;-84
2023/03/24 16:19:59;;;;;;;3.92;1.60;;;;;;;;;;10429699;28;20117;-86
2023/03/24 16:25:00;;;;;;;2.35;1.40;;;;;;;;;;10437121;28;20029;-85
2023/03/24 16:30:01;;;;;;;2.55;1.48;;;;;;;;;;10430465;28;20029;-84
2023/03/24 16:35:03;;;;;;;2.70;1.30;;;;;;;;;;10442740;28;20030;-85
2023/03/24 16:40:11;;;;;;;2.60;1.40;;;;;;;;;;10434507;28;20030;-85
2023/03/24 16:45:12;;;;;;;5.15;1.80;;;;;;;;;;10446112;28;20459;-84
2023/03/24 16:50:28;;;;;;;3.60;1.80;;;;;;;;;;10425595;28;20115;-84
2023/03/24 16:55:29;;;;;;;4.13;2.13;;;;;;;;;;10425713;28;20145;-84
2023/03/24 17:00:30;;;;;;;3.55;1.20;;;;;;;;;;10426773;28;20136;-84
2023/03/24 17:05:49;;;;;;;3.00;1.50;;;;;;;;;;10425233;28;20061;-84
2023/03/24 17:10:52;;;;;;;2.42;1.50;;;;;;;;;;10426654;28;20096;-83
2023/03/24 17:15:53;;;;;;;3.05;1.20;;;;;;;;;;10425597;28;20183;-83
2023/03/24 17:20:54;;;;;;;4.20;1.58;;;;;;;;;;10429814;28;20383;-82
2023/03/24 17:25:55;;;;;;;3.50;1.35;;;;;;;;;;10427294;28;20017;-84
2023/03/24 17:30:56;;;;;;;3.33;1.40;;;;;;;;;;10434209;28;20101;-82
2023/03/24 17:35:57;;;;;;;2.30;1.05;;;;;;;;;;10434805;28;20104;-83
2023/03/24 17:41:02;;;;;;;3.13;1.33;;;;;;;;;;10433160;28;20036;-83
2023/03/24 17:46:04;;;;;;;2.95;1.30;;;;;;;;;;10431299;28;20100;-83
2023/03/24 17:51:05;;;;;;;2.17;1.38;;;;;;;;;;10432405;28;20028;-83
2023/03/24 17:56:06;;;;;;;3.38;1.42;;;;;;;;;;10431877;28;20120;-83
2023/03/24 18:01:07;;;;;;;2.28;1.00;;;;;;;;;;10442824;28;20013;-83
2023/03/24 18:06:10;;;;;;;2.80;1.13;;;;;;;;;;10454114;28;20034;-83
2023/03/24 18:11:13;;;;;;;2.17;1.20;;;;;;;;;;10428996;28;20025;-82
2023/03/24 18:16:15;;;;;;;2.92;1.20;;;;;;;;;;10453499;28;20104;-82
2023/03/24 18:21:17;;;;;;;2.88;1.10;;;;;;;;;;10422883;28;20466;-82
2023/03/24 18:26:18;;;;;;;3.90;1.50;;;;;;;;;;10443668;28;20119;-82
2023/03/24 18:31:20;;;;;;;2.75;1.40;;;;;;;;;;10465872;28;20049;-79
2023/03/24 18:36:25;;;;;;;2.38;1.30;;;;;;;;;;10451955;28;20091;-83
2023/03/24 18:41:27;;;;;;;2.65;1.48;;;;;;;;;;10435511;28;20034;-83
2023/03/24 18:46:28;;;;;;;3.03;1.27;;;;;;;;;;10436016;28;20084;-83
2023/03/24 18:51:29;;;;;;;2.33;1.30;;;;;;;;;;10434547;28;20442;-83
2023/03/24 18:56:30;;;;;;;2.00;0.93;;;;;;;;;;10437325;28;20022;-83
2023/03/24 19:06:34;;;;;;;1.67;1.02;;;;;;;;;;10535189;22;20045;-80
2023/03/24 19:11:35;;;;;;;2.50;0.95;;;;;;;;;;10518468;28;20029;-81
2023/03/24 19:16:36;;;;;;;1.27;0.95;;;;;;;;;;10519734;28;20052;-82
2023/03/24 19:21:39;;;;;;;3.47;1.25;;;;;;;;;;10522928;28;20432;-82
2023/03/24 19:26:40;;;;;;;3.40;1.40;;;;;;;;;;10516557;28;20032;-82
2023/03/24 19:31:41;;;;;;;2.05;1.00;;;;;;;;;;10514320;28;20089;-82
2023/03/24 19:36:43;;;;;;;2.35;0.90;;;;;;;;;;10514613;28;20031;-82
2023/03/24 19:41:44;;;;;;;2.70;1.00;;;;;;;;;;10510784;28;20032;-81
2023/03/24 19:46:45;;;;;;;2.28;1.10;;;;;;;;;;10513083;28;20024;-82
2023/03/24 19:51:47;;;;;;;2.47;1.27;;;;;;;;;;10513399;28;20127;-81
2023/03/24 19:56:48;;;;;;;3.72;1.30;;;;;;;;;;10513288;28;20366;-82
2023/03/24 20:01:49;;;;;;;2.85;1.17;;;;;;;;;;10516210;28;20028;-82
2023/03/24 20:06:51;;;;;;;3.83;1.45;;;;;;;;;;10514372;28;20041;-82
2023/03/24 20:11:52;;;;;;;3.00;1.30;;;;;;;;;;10515261;28;20029;-82
2023/03/24 20:16:53;;;;;;;3.17;1.05;;;;;;;;;;10514467;28;20120;-81
